Prince Albert Glass Field
CYPA : now visible

Airfield :











YOU CAN JOIN US ON...

 
LOGIN :

Register | Disclaimer

   EN    FR    IT 

 









Legend :    VFR   Marginal VFR   IFR   Intensive IFR   Very Intensive IFR
Visi :
Ceiling :
>= 8 km
>= 3000ft
5 to 8 km
1000 to 3000 ft
1500m to 5 km
500 to 1000 ft
800 to 1500m
200 to 500 ft
< 800m
< 200 ft
Symbols :   Thunderstorms  Fog  Heavy snow  Heavy precipitations  Wind > 20 kt






- Airport Elevation : 1405 ft
- IATA code : YPA


CYPA - Prince Albert Glass Field

EXPIRED METARs :
  • 270400Z 29010KT 15SM FEW035 BKN075 OVC120 12/10 A2967 RMK SC2AC4AC2 LAST STFD OBS/NEXT 271200Z SLP056 DENSITY ALT 1800FT
  • 270300Z 29008KT 15SM FEW010 FEW030 BKN085 OVC250 12/11 A2965 RMK CF1SC2AC4CI2 CF TR SLP049 DENSITY ALT 1800FT

Expired Forecast.
CZWG FIR / North America



MET'MAP, your aeronautical weather chart ! - Copyright ORBIFLY December 2007 - Disclaimer

ORBIFLY MET'MAP TEAM :

Programming & Development : Alexandra Zaïnal
Concept & original design : Baudouin d'Aumeries
Assistance for programming : Marc-Olivier Méhu
Technical & hardware support : Manuel Goepfert

Contact : metmap@orbifly.com




SOURCES & CREDITS :

   NOAA       Earth
Advisory